Time,TemperatureF,DewpointF,PressureIn,WindDirection,WindDirectionDegrees,WindSpeedMPH,WindSpeedGustMPH,Humidity,HourlyPrecipIn,Conditions,Clouds,dailyrainin,SoftwareType,DateUTC
2013-02-21 00:01:00,20.0,17.8,30.37,NW,311,0.0,2.0,91,0.00,,---,0.00,VWS V14.01,2013-02-21 05:01:00,
2013-02-21 00:16:00,20.1,17.9,30.37,NW,311,1.0,2.0,91,0.00,,---,0.00,VWS V14.01,2013-02-21 05:16:00,
2013-02-21 00:31:00,20.3,18.1,30.38,NW,311,2.0,3.0,91,0.00,,---,0.00,VWS V14.01,2013-02-21 05:31:00,
2013-02-21 00:46:00,20.5,18.3,30.38,NW,310,1.0,4.0,91,0.00,,---,0.00,VWS V14.01,2013-02-21 05:46:00,
2013-02-21 01:01:00,20.6,18.1,30.38,NW,310,2.0,4.0,90,0.00,,---,0.00,VWS V14.01,2013-02-21 06:01:00,
2013-02-21 01:16:00,20.9,18.4,30.38,NW,310,0.0,4.0,90,0.00,,---,0.00,VWS V14.01,2013-02-21 06:16:00,
2013-02-21 01:31:00,21.0,18.3,30.38,NW,310,0.0,1.0,89,0.00,,---,0.00,VWS V14.01,2013-02-21 06:31:00,
2013-02-21 01:46:00,21.0,18.3,30.38,NW,310,0.0,2.0,89,0.00,,---,0.00,VWS V14.01,2013-02-21 06:46:00,
2013-02-21 02:01:00,20.9,18.2,30.38,NW,310,0.0,2.0,89,0.00,,---,0.00,VWS V14.01,2013-02-21 07:01:00,
2013-02-21 02:16:00,20.9,18.2,30.38,NW,310,0.0,0.0,89,0.00,,---,0.00,VWS V14.01,2013-02-21 07:16:00,
2013-02-21 02:31:00,20.9,18.2,30.37,NW,310,0.0,2.0,89,0.00,,---,0.00,VWS V14.01,2013-02-21 07:31:00,
2013-02-21 02:46:00,20.8,18.1,30.39,NW,310,0.0,2.0,89,0.00,,---,0.00,VWS V14.01,2013-02-21 07:46:00,
2013-02-21 03:01:00,20.7,18.0,30.39,NW,310,0.0,1.0,89,0.00,,---,0.00,VWS V14.01,2013-02-21 08:01:00,
2013-02-21 03:16:00,20.7,18.0,30.38,NW,310,0.0,2.0,89,0.00,,---,0.00,VWS V14.01,2013-02-21 08:16:00,
2013-02-21 03:31:00,20.8,18.1,30.38,NW,310,0.0,2.0,89,0.00,,---,0.00,VWS V14.01,2013-02-21 08:31:00,
2013-02-21 03:46:00,21.0,18.0,30.38,NW,310,1.0,1.0,88,0.00,,---,0.00,VWS V14.01,2013-02-21 08:46:00,
2013-02-21 04:01:00,21.0,17.8,30.39,NW,310,0.0,1.0,87,0.00,,---,0.00,VWS V14.01,2013-02-21 09:01:00,
2013-02-21 04:16:00,21.0,17.8,30.38,NW,310,0.0,2.0,87,0.00,,---,0.00,VWS V14.01,2013-02-21 09:16:00,
2013-02-21 04:31:00,20.8,17.5,30.38,NW,310,0.0,2.0,87,0.00,,---,0.00,VWS V14.01,2013-02-21 09:31:00,
2013-02-21 04:46:00,20.8,17.5,30.38,NW,310,1.0,2.0,87,0.00,,---,0.00,VWS V14.01,2013-02-21 09:46:00,
2013-02-21 05:01:00,20.8,17.5,30.38,NNW,331,2.0,3.0,87,0.00,,---,0.00,VWS V14.01,2013-02-21 10:01:00,
2013-02-21 05:16:00,20.8,17.3,30.38,North,10,0.0,3.0,86,0.00,,---,0.00,VWS V14.01,2013-02-21 10:16:00,
2013-02-21 05:31:00,20.7,17.2,30.39,NNE,24,0.0,3.0,86,0.00,,---,0.00,VWS V14.01,2013-02-21 10:31:00,
2013-02-21 05:46:00,20.6,17.1,30.39,NE,42,0.0,3.0,86,0.00,,---,0.00,VWS V14.01,2013-02-21 10:46:00,
2013-02-21 06:01:00,20.6,17.1,30.40,NE,42,1.0,2.0,86,0.00,,---,0.00,VWS V14.01,2013-02-21 11:01:00,
2013-02-21 06:16:00,20.5,17.0,30.41,NE,39,0.0,3.0,86,0.00,,---,0.00,VWS V14.01,2013-02-21 11:16:00,
2013-02-21 06:31:00,20.5,17.0,30.41,NE,40,0.0,3.0,86,0.00,,---,0.00,VWS V14.01,2013-02-21 11:31:00,
2013-02-21 06:46:00,20.4,16.9,30.41,NE,38,3.0,6.0,86,0.00,,---,0.00,VWS V14.01,2013-02-21 11:46:00,
2013-02-21 07:01:00,20.2,16.7,30.41,NNE,31,2.0,5.0,86,0.00,,---,0.00,VWS V14.01,2013-02-21 12:01:00,
2013-02-21 07:16:00,20.1,16.6,30.40,ENE,57,2.0,5.0,86,0.00,,---,0.00,VWS V14.01,2013-02-21 12:16:00,
2013-02-21 07:31:00,20.0,16.5,30.40,ENE,57,3.0,5.0,86,0.00,,---,0.00,VWS V14.01,2013-02-21 12:31:00,
2013-02-21 07:46:00,19.9,16.4,30.40,ENE,58,4.0,7.0,86,0.00,,---,0.00,VWS V14.01,2013-02-21 12:46:00,
2013-02-21 08:01:00,19.5,16.0,30.40,NE,55,4.0,8.0,86,0.00,,---,0.00,VWS V14.01,2013-02-21 13:01:00,
2013-02-21 08:16:00,19.5,16.0,30.40,NE,51,2.0,8.0,86,0.00,,---,0.00,VWS V14.01,2013-02-21 13:16:00,
2013-02-21 08:31:00,19.6,15.8,30.41,NE,44,4.0,8.0,85,0.00,,---,0.00,VWS V14.01,2013-02-21 13:31:00,
2013-02-21 08:46:00,19.8,16.3,30.41,ENE,58,2.0,7.0,86,0.00,,---,0.00,VWS V14.01,2013-02-21 13:46:00,
2013-02-21 09:01:00,20.0,16.2,30.42,ENE,69,4.0,9.0,85,0.00,,---,0.00,VWS V14.01,2013-02-21 14:01:00,
2013-02-21 09:16:00,20.3,16.5,30.42,ENE,65,2.0,7.0,85,0.00,,---,0.00,VWS V14.01,2013-02-21 14:16:00,
2013-02-21 09:31:00,20.3,16.2,30.42,ENE,65,1.0,8.0,84,0.00,,---,0.00,VWS V14.01,2013-02-21 14:31:00,
2013-02-21 09:46:00,20.7,16.6,30.42,ENE,71,2.0,5.0,84,0.00,,---,0.00,VWS V14.01,2013-02-21 14:46:00,
2013-02-21 10:01:00,20.9,16.6,30.43,East,80,2.0,6.0,83,0.00,,---,0.00,VWS V14.01,2013-02-21 15:01:00,
2013-02-21 10:16:00,21.1,16.8,30.41,ENE,69,8.0,8.0,83,0.00,,---,0.00,VWS V14.01,2013-02-21 15:16:00,
2013-02-21 10:31:00,21.4,17.0,30.40,ENE,61,3.0,8.0,83,0.00,,---,0.00,VWS V14.01,2013-02-21 15:31:00,
2013-02-21 10:46:00,21.6,17.0,30.40,ENE,68,4.0,8.0,82,0.00,,---,0.00,VWS V14.01,2013-02-21 15:46:00,
2013-02-21 11:01:00,21.6,16.7,30.39,NE,49,3.0,8.0,81,0.00,,---,0.00,VWS V14.01,2013-02-21 16:01:00,
2013-02-21 11:16:00,22.2,17.3,30.40,East,84,2.0,5.0,81,0.00,,---,0.00,VWS V14.01,2013-02-21 16:16:00,
2013-02-21 11:31:00,22.6,17.4,30.43,ESE,111,1.0,6.0,80,0.00,,---,0.00,VWS V14.01,2013-02-21 16:31:00,
2013-02-21 11:46:00,23.4,17.3,30.42,SE,126,3.0,8.0,77,0.00,,---,0.00,VWS V14.01,2013-02-21 16:46:00,
2013-02-21 12:01:00,22.6,16.8,30.42,ESE,114,2.0,6.0,78,0.00,,---,0.00,VWS V14.01,2013-02-21 17:01:00,
2013-02-21 12:16:00,22.6,17.1,30.42,ESE,109,3.0,8.0,79,0.00,,---,0.00,VWS V14.01,2013-02-21 17:16:00,
2013-02-21 12:31:00,22.6,17.1,30.41,ESE,104,3.0,7.0,79,0.00,,---,0.00,VWS V14.01,2013-02-21 17:31:00,
2013-02-21 12:46:00,23.4,17.6,30.38,ESE,105,7.0,8.0,78,0.00,,---,0.00,VWS V14.01,2013-02-21 17:46:00,
2013-02-21 13:01:00,23.4,17.6,30.38,East,100,6.0,10.0,78,0.00,,---,0.00,VWS V14.01,2013-02-21 18:01:00,
2013-02-21 13:16:00,23.7,17.9,30.37,East,98,8.0,10.0,78,0.00,,---,0.00,VWS V14.01,2013-02-21 18:16:00,
2013-02-21 13:31:00,23.9,17.8,30.36,ENE,72,3.0,11.0,77,0.00,,---,0.00,VWS V14.01,2013-02-21 18:31:00,
2013-02-21 13:46:00,24.3,18.1,30.35,ESE,119,4.0,10.0,77,0.00,,---,0.00,VWS V14.01,2013-02-21 18:46:00,
2013-02-21 14:01:00,24.7,18.5,30.34,ENE,68,7.0,11.0,77,0.00,,---,0.00,VWS V14.01,2013-02-21 19:01:00,
2013-02-21 14:16:00,24.6,18.7,30.31,ENE,59,7.0,10.0,78,0.00,,---,0.00,VWS V14.01,2013-02-21 19:16:00,
2013-02-21 14:31:00,24.3,18.4,30.31,NE,53,2.0,12.0,78,0.01,,---,0.01,VWS V14.01,2013-02-21 19:31:00,
2013-02-21 14:46:00,24.3,18.7,30.28,ENE,59,4.0,13.0,79,0.01,,---,0.01,VWS V14.01,2013-02-21 19:46:00,
2013-02-21 15:01:00,24.2,18.3,30.28,East,95,7.0,13.0,78,0.01,,---,0.01,VWS V14.01,2013-02-21 20:01:00,
2013-02-21 15:16:00,24.4,18.8,30.27,ENE,72,7.0,13.0,79,0.01,,---,0.01,VWS V14.01,2013-02-21 20:16:00,
2013-02-21 15:31:00,24.4,18.8,30.29,ESE,109,5.0,14.0,79,0.01,,---,0.01,VWS V14.01,2013-02-21 20:31:00,
2013-02-21 15:46:00,24.6,18.7,30.32,ESE,118,7.0,12.0,78,0.00,,---,0.01,VWS V14.01,2013-02-21 20:46:00,
2013-02-21 16:01:00,24.8,18.9,30.32,East,94,2.0,13.0,78,0.00,,---,0.01,VWS V14.01,2013-02-21 21:01:00,
2013-02-21 16:16:00,25.0,19.1,30.32,ESE,111,7.0,13.0,78,0.00,,---,0.01,VWS V14.01,2013-02-21 21:16:00,
2013-02-21 16:31:00,25.0,19.1,30.30,ENE,72,5.0,13.0,78,0.00,,---,0.01,VWS V14.01,2013-02-21 21:31:00,
2013-02-21 16:46:00,25.1,19.2,30.30,ENE,65,9.0,13.0,78,0.00,,---,0.01,VWS V14.01,2013-02-21 21:46:00,
2013-02-21 17:01:00,25.2,19.3,30.30,East,91,3.0,12.0,78,0.00,,---,0.01,VWS V14.01,2013-02-21 22:01:00,
2013-02-21 17:16:00,25.2,19.3,30.31,East,96,6.0,11.0,78,0.00,,---,0.01,VWS V14.01,2013-02-21 22:16:00,
2013-02-21 17:31:00,25.3,19.4,30.31,ESE,117,9.0,14.0,78,0.00,,---,0.01,VWS V14.01,2013-02-21 22:31:00,
2013-02-21 17:46:00,25.2,19.3,30.30,ESE,115,10.0,14.0,78,0.00,,---,0.01,VWS V14.01,2013-02-21 22:46:00,
2013-02-21 18:01:00,25.1,19.5,30.28,ESE,109,7.0,13.0,79,0.00,,---,0.01,VWS V14.01,2013-02-21 23:01:00,
2013-02-21 18:16:00,25.1,19.5,30.28,East,96,7.0,13.0,79,0.00,,---,0.01,VWS V14.01,2013-02-21 23:16:00,
2013-02-21 18:31:00,25.2,19.6,30.28,East,94,7.0,17.0,79,0.00,,---,0.01,VWS V14.01,2013-02-21 23:31:00,
2013-02-21 18:46:00,25.2,19.6,30.28,SE,132,10.0,14.0,79,0.00,,---,0.01,VWS V14.01,2013-02-21 23:46:00,
2013-02-21 19:01:00,25.1,19.8,30.28,ESE,114,11.0,16.0,80,0.00,,---,0.01,VWS V14.01,2013-02-22 00:01:00,
2013-02-21 19:16:00,25.2,19.9,30.28,ENE,61,8.0,12.0,80,0.00,,---,0.01,VWS V14.01,2013-02-22 00:16:00,
2013-02-21 19:31:00,25.1,19.8,30.27,East,88,8.0,17.0,80,0.00,,---,0.01,VWS V14.01,2013-02-22 00:31:00,
2013-02-21 19:46:00,24.9,19.9,30.25,ESE,107,8.0,19.0,81,0.00,,---,0.01,VWS V14.01,2013-02-22 00:46:00,
2013-02-21 20:01:00,24.8,19.8,30.23,ENE,65,5.0,22.0,81,0.00,,---,0.01,VWS V14.01,2013-02-22 01:01:00,
2013-02-21 20:16:00,24.8,19.8,30.23,ESE,120,11.0,24.0,81,0.00,,---,0.01,VWS V14.01,2013-02-22 01:16:00,
2013-02-21 20:31:00,24.8,19.8,30.24,ESE,103,12.0,19.0,81,0.00,,---,0.01,VWS V14.01,2013-02-22 01:31:00,
2013-02-21 20:46:00,24.6,19.3,30.23,East,98,15.0,23.0,80,0.00,,---,0.01,VWS V14.01,2013-02-22 01:46:00,
2013-02-21 21:01:00,24.4,19.4,30.22,ESE,112,8.0,19.0,81,0.00,,---,0.01,VWS V14.01,2013-02-22 02:01:00,
2013-02-21 21:16:00,24.3,19.3,30.21,ESE,103,5.0,17.0,81,0.00,,---,0.01,VWS V14.01,2013-02-22 02:16:00,
2013-02-21 21:31:00,24.2,19.2,30.21,East,98,9.0,20.0,81,0.00,,---,0.01,VWS V14.01,2013-02-22 02:31:00,
2013-02-21 21:46:00,24.1,19.1,30.21,ESE,102,10.0,19.0,81,0.00,,---,0.01,VWS V14.01,2013-02-22 02:46:00,
2013-02-21 22:01:00,24.1,19.4,30.21,East,80,13.0,18.0,82,0.00,,---,0.01,VWS V14.01,2013-02-22 03:01:00,
2013-02-21 22:16:00,23.8,18.8,30.21,ESE,113,13.0,22.0,81,0.00,,---,0.01,VWS V14.01,2013-02-22 03:16:00,
2013-02-21 22:31:00,23.5,18.5,30.20,East,98,13.0,22.0,81,0.00,,---,0.01,VWS V14.01,2013-02-22 03:31:00,
2013-02-21 22:46:00,23.2,18.2,30.18,SE,128,7.0,23.0,81,0.00,,---,0.01,VWS V14.01,2013-02-22 03:46:00,
2013-02-21 23:01:00,22.8,17.9,30.16,ESE,113,11.0,25.0,81,0.00,,---,0.01,VWS V14.01,2013-02-22 04:01:00,
2013-02-21 23:16:00,22.7,17.8,30.13,ESE,104,18.0,22.0,81,0.00,,---,0.01,VWS V14.01,2013-02-22 04:16:00,
2013-02-21 23:31:00,22.3,17.1,30.13,ESE,107,12.0,26.0,80,0.00,,---,0.01,VWS V14.01,2013-02-22 04:31:00,
2013-02-21 23:46:00,22.1,16.9,30.12,ESE,113,9.0,29.0,80,0.00,,---,0.01,VWS V14.01,2013-02-22 04:46:00,